sensor_id;sensor_type;location;lat;lon;timestamp;pressure;altitude;pressure_sealevel;temperature;humidity
12949;BME280;6539;49.476;8.484;2023-03-12T00:00:54;100269.31;;;5.12;52.29
12949;BME280;6539;49.476;8.484;2023-03-12T00:03:20;100269.41;;;5.22;51.88
12949;BME280;6539;49.476;8.484;2023-03-12T00:05:46;100259.63;;;5.14;52.01
12949;BME280;6539;49.476;8.484;2023-03-12T00:08:14;100267.88;;;5.21;52.63
12949;BME280;6539;49.476;8.484;2023-03-12T00:10:42;100262.47;;;5.25;52.73
12949;BME280;6539;49.476;8.484;2023-03-12T00:13:11;100273.38;;;5.28;52.61
12949;BME280;6539;49.476;8.484;2023-03-12T00:15:38;100269.13;;;5.31;52.77
12949;BME280;6539;49.476;8.484;2023-03-12T00:18:04;100262.78;;;5.20;53.32
12949;BME280;6539;49.476;8.484;2023-03-12T00:20:32;100265.50;;;5.20;53.32
12949;BME280;6539;49.476;8.484;2023-03-12T00:22:58;100269.38;;;5.19;53.54
12949;BME280;6539;49.476;8.484;2023-03-12T00:25:26;100269.72;;;5.14;53.70
12949;BME280;6539;49.476;8.484;2023-03-12T00:27:52;100267.94;;;4.95;53.81
12949;BME280;6539;49.476;8.484;2023-03-12T00:30:21;100273.81;;;4.97;53.97
12949;BME280;6539;49.476;8.484;2023-03-12T00:32:49;100266.75;;;4.93;53.67
12949;BME280;6539;49.476;8.484;2023-03-12T00:35:14;100269.78;;;4.88;53.88
12949;BME280;6539;49.476;8.484;2023-03-12T00:37:40;100275.22;;;4.88;53.56
12949;BME280;6539;49.476;8.484;2023-03-12T00:40:06;100272.88;;;4.86;54.01
12949;BME280;6539;49.476;8.484;2023-03-12T00:42:37;100275.19;;;4.84;53.89
12949;BME280;6539;49.476;8.484;2023-03-12T00:45:03;100280.34;;;4.93;53.81
12949;BME280;6539;49.476;8.484;2023-03-12T00:47:29;100279.25;;;4.97;53.41
12949;BME280;6539;49.476;8.484;2023-03-12T00:49:55;100275.00;;;5.00;53.61
12949;BME280;6539;49.476;8.484;2023-03-12T00:52:21;100272.69;;;5.02;53.22
12949;BME280;6539;49.476;8.484;2023-03-12T00:54:47;100268.81;;;5.03;53.23
12949;BME280;6539;49.476;8.484;2023-03-12T00:57:15;100269.22;;;5.05;53.31
12949;BME280;6539;49.476;8.484;2023-03-12T00:59:41;100266.03;;;4.96;53.51
12949;BME280;6539;49.476;8.484;2023-03-12T01:02:08;100264.84;;;4.97;53.74
12949;BME280;6539;49.476;8.484;2023-03-12T01:04:34;100269.19;;;5.01;53.53
12949;BME280;6539;49.476;8.484;2023-03-12T01:07:00;100269.22;;;5.05;53.44
12949;BME280;6539;49.476;8.484;2023-03-12T01:09:25;100267.78;;;5.14;53.34
12949;BME280;6539;49.476;8.484;2023-03-12T01:11:51;100266.25;;;5.17;52.94
12949;BME280;6539;49.476;8.484;2023-03-12T01:14:17;100267.81;;;5.18;52.99
12949;BME280;6539;49.476;8.484;2023-03-12T01:16:43;100261.97;;;5.16;52.81
12949;BME280;6539;49.476;8.484;2023-03-12T01:19:08;100272.84;;;5.16;52.88
12949;BME280;6539;49.476;8.484;2023-03-12T01:21:34;100272.91;;;5.19;52.58
12949;BME280;6539;49.476;8.484;2023-03-12T01:24:05;100268.16;;;5.13;51.22
12949;BME280;6539;49.476;8.484;2023-03-12T01:26:31;100263.00;;;5.04;51.56
12949;BME280;6539;49.476;8.484;2023-03-12T01:28:59;100267.63;;;5.00;51.51
12949;BME280;6539;49.476;8.484;2023-03-12T01:31:25;100261.44;;;5.03;51.75
12949;BME280;6539;49.476;8.484;2023-03-12T01:33:52;100264.53;;;5.02;51.66
12949;BME280;6539;49.476;8.484;2023-03-12T01:36:30;100274.63;;;5.01;51.35
12949;BME280;6539;49.476;8.484;2023-03-12T01:38:58;100273.09;;;5.04;51.14
12949;BME280;6539;49.476;8.484;2023-03-12T01:41:27;100273.13;;;5.07;51.29
12949;BME280;6539;49.476;8.484;2023-03-12T01:43:53;100272.69;;;5.02;51.26
12949;BME280;6539;49.476;8.484;2023-03-12T01:49:06;100271.22;;;5.08;51.35
12949;BME280;6539;49.476;8.484;2023-03-12T01:57:17;100247.84;;;5.03;51.35
12949;BME280;6539;49.476;8.484;2023-03-12T01:59:53;100247.81;;;5.00;51.66
12949;BME280;6539;49.476;8.484;2023-03-12T02:02:24;100237.25;;;4.95;51.64
12949;BME280;6539;49.476;8.484;2023-03-12T02:05:11;100238.19;;;4.76;52.15
12949;BME280;6539;49.476;8.484;2023-03-12T02:07:40;100237.84;;;4.81;52.14
12949;BME280;6539;49.476;8.484;2023-03-12T02:10:06;100237.91;;;4.85;52.02
12949;BME280;6539;49.476;8.484;2023-03-12T02:12:34;100232.00;;;4.79;52.44
12949;BME280;6539;49.476;8.484;2023-03-12T02:15:00;100230.88;;;4.84;52.11
12949;BME280;6539;49.476;8.484;2023-03-12T02:17:29;100227.03;;;4.85;52.08
12949;BME280;6539;49.476;8.484;2023-03-12T02:20:24;100237.09;;;4.81;52.24
12949;BME280;6539;49.476;8.484;2023-03-12T02:25:53;100226.84;;;4.71;52.14
12949;BME280;6539;49.476;8.484;2023-03-12T02:28:26;100229.13;;;4.65;52.67
12949;BME280;6539;49.476;8.484;2023-03-12T02:31:03;100223.09;;;4.79;52.64
12949;BME280;6539;49.476;8.484;2023-03-12T02:33:34;100226.66;;;4.86;52.40
12949;BME280;6539;49.476;8.484;2023-03-12T02:36:00;100226.25;;;4.84;52.43
12949;BME280;6539;49.476;8.484;2023-03-12T02:38:45;100230.97;;;4.91;52.47
12949;BME280;6539;49.476;8.484;2023-03-12T02:41:26;100230.31;;;5.01;52.20
12949;BME280;6539;49.476;8.484;2023-03-12T02:44:13;100229.59;;;5.07;51.80
12949;BME280;6539;49.476;8.484;2023-03-12T02:46:45;100224.13;;;5.04;51.58
12949;BME280;6539;49.476;8.484;2023-03-12T02:49:12;100219.44;;;5.01;51.61
12949;BME280;6539;49.476;8.484;2023-03-12T02:51:43;100220.59;;;5.00;51.56
12949;BME280;6539;49.476;8.484;2023-03-12T02:54:11;100216.66;;;4.94;51.49
12949;BME280;6539;49.476;8.484;2023-03-12T02:56:39;100207.72;;;4.93;51.49
12949;BME280;6539;49.476;8.484;2023-03-12T02:59:06;100214.69;;;4.94;51.63
12949;BME280;6539;49.476;8.484;2023-03-12T03:01:32;100209.22;;;4.91;51.75
12949;BME280;6539;49.476;8.484;2023-03-12T03:04:04;100206.59;;;4.98;51.57
12949;BME280;6539;49.476;8.484;2023-03-12T03:06:35;100212.84;;;5.02;51.31
12949;BME280;6539;49.476;8.484;2023-03-12T03:09:02;100201.59;;;5.03;51.34
12949;BME280;6539;49.476;8.484;2023-03-12T03:11:33;100198.91;;;5.07;51.27
12949;BME280;6539;49.476;8.484;2023-03-12T03:14:01;100207.03;;;5.03;51.21
12949;BME280;6539;49.476;8.484;2023-03-12T03:16:31;100209.75;;;5.03;51.38
12949;BME280;6539;49.476;8.484;2023-03-12T03:18:57;100211.66;;;4.99;51.20
12949;BME280;6539;49.476;8.484;2023-03-12T03:21:23;100214.00;;;5.01;51.26
12949;BME280;6539;49.476;8.484;2023-03-12T03:23:49;100216.19;;;4.88;51.74
12949;BME280;6539;49.476;8.484;2023-03-12T03:26:21;100210.38;;;4.90;52.06
12949;BME280;6539;49.476;8.484;2023-03-12T03:28:50;100206.81;;;4.82;52.52
12949;BME280;6539;49.476;8.484;2023-03-12T03:31:16;100214.66;;;4.91;52.51
12949;BME280;6539;49.476;8.484;2023-03-12T03:33:42;100210.44;;;4.93;52.30
12949;BME280;6539;49.476;8.484;2023-03-12T03:36:10;100213.16;;;4.93;51.83
12949;BME280;6539;49.476;8.484;2023-03-12T03:38:40;100207.66;;;4.90;52.60
12949;BME280;6539;49.476;8.484;2023-03-12T03:41:06;100210.00;;;4.91;52.43
12949;BME280;6539;49.476;8.484;2023-03-12T03:43:32;100210.13;;;5.02;52.36
12949;BME280;6539;49.476;8.484;2023-03-12T03:46:04;100209.44;;;5.12;52.16
12949;BME280;6539;49.476;8.484;2023-03-12T03:48:32;100223.81;;;5.09;52.51
12949;BME280;6539;49.476;8.484;2023-03-12T03:51:03;100204.56;;;4.91;52.92
12949;BME280;6539;49.476;8.484;2023-03-12T03:53:33;100202.16;;;4.83;53.30
12949;BME280;6539;49.476;8.484;2023-03-12T03:56:06;100207.25;;;4.88;53.68
12949;BME280;6539;49.476;8.484;2023-03-12T03:58:32;100205.69;;;4.87;53.25
12949;BME280;6539;49.476;8.484;2023-03-12T04:01:01;100210.78;;;4.92;53.73
12949;BME280;6539;49.476;8.484;2023-03-12T04:03:32;100215.59;;;5.05;53.91
12949;BME280;6539;49.476;8.484;2023-03-12T04:06:01;100212.50;;;5.07;53.81
12949;BME280;6539;49.476;8.484;2023-03-12T04:08:27;100214.81;;;5.05;53.41
12949;BME280;6539;49.476;8.484;2023-03-12T04:10:54;100208.59;;;5.04;53.98
12949;BME280;6539;49.476;8.484;2023-03-12T04:13:20;100193.44;;;5.07;53.77
12949;BME280;6539;49.476;8.484;2023-03-12T04:15:51;100196.19;;;5.07;53.44
12949;BME280;6539;49.476;8.484;2023-03-12T04:18:20;100204.97;;;4.93;52.78
12949;BME280;6539;49.476;8.484;2023-03-12T04:20:45;100204.97;;;4.93;53.16
12949;BME280;6539;49.476;8.484;2023-03-12T04:23:11;100198.25;;;4.84;53.49
12949;BME280;6539;49.476;8.484;2023-03-12T04:25:38;100195.94;;;4.86;53.29
12949;BME280;6539;49.476;8.484;2023-03-12T04:28:04;100198.31;;;4.87;53.75
12949;BME280;6539;49.476;8.484;2023-03-12T04:30:30;100201.50;;;4.96;53.45
12949;BME280;6539;49.476;8.484;2023-03-12T04:32:58;100197.34;;;5.06;53.02
12949;BME280;6539;49.476;8.484;2023-03-12T04:35:26;100204.22;;;4.96;52.52
12949;BME280;6539;49.476;8.484;2023-03-12T04:37:54;100211.69;;;5.03;52.61
12949;BME280;6539;49.476;8.484;2023-03-12T04:40:20;100210.03;;;4.95;52.87
12949;BME280;6539;49.476;8.484;2023-03-12T04:42:47;100221.81;;;5.02;53.07
12949;BME280;6539;49.476;8.484;2023-03-12T04:45:13;100207.81;;;5.04;53.40
12949;BME280;6539;49.476;8.484;2023-03-12T04:47:40;100202.81;;;5.09;53.58
12949;BME280;6539;49.476;8.484;2023-03-12T04:50:11;100213.75;;;5.13;53.71
12949;BME280;6539;49.476;8.484;2023-03-12T04:52:40;100204.41;;;5.14;53.70
12949;BME280;6539;49.476;8.484;2023-03-12T04:55:06;100212.09;;;5.05;54.02
12949;BME280;6539;49.476;8.484;2023-03-12T04:57:37;100213.66;;;5.06;54.15
12949;BME280;6539;49.476;8.484;2023-03-12T05:00:04;100214.38;;;4.99;54.61
12949;BME280;6539;49.476;8.484;2023-03-12T05:02:36;100203.69;;;4.84;55.32
12949;BME280;6539;49.476;8.484;2023-03-12T05:05:06;100204.50;;;4.88;56.17
12949;BME280;6539;49.476;8.484;2023-03-12T05:07:32;100199.44;;;4.83;56.81
12949;BME280;6539;49.476;8.484;2023-03-12T05:09:58;100205.88;;;4.71;58.81
12949;BME280;6539;49.476;8.484;2023-03-12T05:12:25;100201.09;;;4.61;61.59
12949;BME280;6539;49.476;8.484;2023-03-12T05:14:51;100201.41;;;4.52;63.36
12949;BME280;6539;49.476;8.484;2023-03-12T05:17:16;100195.06;;;4.45;65.04
12949;BME280;6539;49.476;8.484;2023-03-12T05:19:42;100196.38;;;4.25;66.34
12949;BME280;6539;49.476;8.484;2023-03-12T05:22:08;100188.66;;;4.30;67.19
12949;BME280;6539;49.476;8.484;2023-03-12T05:24:34;100189.97;;;4.40;68.13
12949;BME280;6539;49.476;8.484;2023-03-12T05:27:03;100189.91;;;4.36;68.79
12949;BME280;6539;49.476;8.484;2023-03-12T05:29:31;100184.44;;;4.33;69.77
12949;BME280;6539;49.476;8.484;2023-03-12T05:32:05;100183.34;;;4.37;69.86
12949;BME280;6539;49.476;8.484;2023-03-12T05:34:32;100181.34;;;4.34;69.56
12949;BME280;6539;49.476;8.484;2023-03-12T05:37:00;100175.91;;;4.34;69.65
12949;BME280;6539;49.476;8.484;2023-03-12T05:39:28;100186.47;;;4.39;69.84
12949;BME280;6539;49.476;8.484;2023-03-12T05:41:56;100187.28;;;4.43;69.50
12949;BME280;6539;49.476;8.484;2023-03-12T05:44:25;100171.66;;;4.33;69.46
12949;BME280;6539;49.476;8.484;2023-03-12T05:46:54;100183.34;;;4.37;70.44
12949;BME280;6539;49.476;8.484;2023-03-12T05:49:21;100170.88;;;4.36;70.70
12949;BME280;6539;49.476;8.484;2023-03-12T05:51:48;100170.88;;;4.36;70.87
12949;BME280;6539;49.476;8.484;2023-03-12T05:54:16;100166.56;;;4.32;70.47
12949;BME280;6539;49.476;8.484;2023-03-12T05:56:42;100177.50;;;4.35;71.20
12949;BME280;6539;49.476;8.484;2023-03-12T05:59:08;100182.50;;;4.33;70.77
12949;BME280;6539;49.476;8.484;2023-03-12T06:01:38;100174.69;;;4.28;71.29
12949;BME280;6539;49.476;8.484;2023-03-12T06:04:04;100175.41;;;4.25;71.36
12949;BME280;6539;49.476;8.484;2023-03-12T06:06:35;100177.41;;;4.28;71.78
12949;BME280;6539;49.476;8.484;2023-03-12T06:09:03;100189.81;;;4.29;71.82
12949;BME280;6539;49.476;8.484;2023-03-12T06:11:35;100185.97;;;4.30;72.06
12949;BME280;6539;49.476;8.484;2023-03-12T06:14:03;100192.19;;;4.31;71.98
12949;BME280;6539;49.476;8.484;2023-03-12T06:16:29;100189.19;;;4.39;72.17
12949;BME280;6539;49.476;8.484;2023-03-12T06:18:59;100190.75;;;4.40;72.23
12949;BME280;6539;49.476;8.484;2023-03-12T06:21:34;100190.69;;;4.37;72.37
12949;BME280;6539;49.476;8.484;2023-03-12T06:24:05;100182.06;;;4.31;72.29
12949;BME280;6539;49.476;8.484;2023-03-12T06:26:33;100171.97;;;4.28;73.18
12949;BME280;6539;49.476;8.484;2023-03-12T06:29:01;100168.25;;;4.40;73.40
12949;BME280;6539;49.476;8.484;2023-03-12T06:31:27;100173.91;;;4.31;73.90
12949;BME280;6539;49.476;8.484;2023-03-12T06:33:53;100174.41;;;4.37;74.14
12949;BME280;6539;49.476;8.484;2023-03-12T06:36:19;100172.94;;;4.46;73.87
12949;BME280;6539;49.476;8.484;2023-03-12T06:38:47;100170.75;;;4.55;73.78
12949;BME280;6539;49.476;8.484;2023-03-12T06:41:17;100177.09;;;4.67;73.42
12949;BME280;6539;49.476;8.484;2023-03-12T06:43:44;100181.03;;;4.73;73.72
12949;BME280;6539;49.476;8.484;2023-03-12T06:46:14;100170.16;;;4.73;73.45
12949;BME280;6539;49.476;8.484;2023-03-12T06:48:41;100172.19;;;4.79;73.62
12949;BME280;6539;49.476;8.484;2023-03-12T06:51:10;100167.94;;;4.82;73.40
12949;BME280;6539;49.476;8.484;2023-03-12T06:53:36;100177.22;;;4.77;73.86
12949;BME280;6539;49.476;8.484;2023-03-12T06:56:05;100174.59;;;4.88;73.98
12949;BME280;6539;49.476;8.484;2023-03-12T06:58:34;100183.94;;;4.87;74.14
12949;BME280;6539;49.476;8.484;2023-03-12T07:01:00;100178.88;;;4.85;73.77
12949;BME280;6539;49.476;8.484;2023-03-12T07:03:26;100173.63;;;4.70;74.54
12949;BME280;6539;49.476;8.484;2023-03-12T07:05:58;100171.66;;;4.67;75.24
12949;BME280;6539;49.476;8.484;2023-03-12T07:08:28;100173.69;;;4.77;75.26
12949;BME280;6539;49.476;8.484;2023-03-12T07:10:59;100180.75;;;4.81;75.43
12949;BME280;6539;49.476;8.484;2023-03-12T07:13:27;100185.00;;;4.79;75.74
12949;BME280;6539;49.476;8.484;2023-03-12T07:15:53;100179.94;;;4.77;76.07
12949;BME280;6539;49.476;8.484;2023-03-12T07:18:21;100174.06;;;4.75;76.58
12949;BME280;6539;49.476;8.484;2023-03-12T07:20:47;100170.94;;;4.73;76.70
12949;BME280;6539;49.476;8.484;2023-03-12T07:23:15;100178.16;;;4.58;78.02
12949;BME280;6539;49.476;8.484;2023-03-12T07:25:43;100171.72;;;4.70;77.24
12949;BME280;6539;49.476;8.484;2023-03-12T07:28:12;100166.47;;;4.54;76.53
12949;BME280;6539;49.476;8.484;2023-03-12T07:30:39;100168.78;;;4.52;76.28
12949;BME280;6539;49.476;8.484;2023-03-12T07:33:17;100177.75;;;4.56;75.69
12949;BME280;6539;49.476;8.484;2023-03-12T07:35:47;100188.13;;;4.47;75.56
12949;BME280;6539;49.476;8.484;2023-03-12T07:38:13;100177.50;;;4.35;75.40
12949;BME280;6539;49.476;8.484;2023-03-12T07:40:39;100170.88;;;4.36;75.30
12949;BME280;6539;49.476;8.484;2023-03-12T07:43:05;100169.63;;;4.27;75.91
12949;BME280;6539;49.476;8.484;2023-03-12T07:45:38;100165.47;;;4.36;75.40
12949;BME280;6539;49.476;8.484;2023-03-12T07:48:07;100168.13;;;4.33;74.71
12949;BME280;6539;49.476;8.484;2023-03-12T07:50:37;100168.25;;;4.40;74.58
12949;BME280;6539;49.476;8.484;2023-03-12T07:53:05;100168.72;;;4.49;74.66
12949;BME280;6539;49.476;8.484;2023-03-12T07:55:33;100162.94;;;4.50;74.49
12949;BME280;6539;49.476;8.484;2023-03-12T07:57:59;100172.69;;;4.55;74.42
12949;BME280;6539;49.476;8.484;2023-03-12T08:00:27;100174.56;;;4.51;74.40
12949;BME280;6539;49.476;8.484;2023-03-12T08:02:53;100185.16;;;4.59;73.69
12949;BME280;6539;49.476;8.484;2023-03-12T08:05:19;100184.00;;;4.60;73.64
12949;BME280;6539;49.476;8.484;2023-03-12T08:07:51;100187.97;;;4.67;73.47
12949;BME280;6539;49.476;8.484;2023-03-12T08:10:19;100189.53;;;4.68;72.98
12949;BME280;6539;49.476;8.484;2023-03-12T08:12:47;100195.81;;;4.72;73.60
12949;BME280;6539;49.476;8.484;2023-03-12T08:15:15;100202.06;;;4.76;73.30
12949;BME280;6539;49.476;8.484;2023-03-12T08:17:41;100191.88;;;4.69;73.61
12949;BME280;6539;49.476;8.484;2023-03-12T08:20:12;100196.59;;;4.72;73.65
12949;BME280;6539;49.476;8.484;2023-03-12T08:22:39;100199.25;;;4.69;73.97
12949;BME280;6539;49.476;8.484;2023-03-12T08:25:08;100201.63;;;4.70;73.94
12949;BME280;6539;49.476;8.484;2023-03-12T08:27:35;100201.63;;;4.70;73.53
12949;BME280;6539;49.476;8.484;2023-03-12T08:30:05;100198.94;;;4.74;73.88
12949;BME280;6539;49.476;8.484;2023-03-12T08:32:31;100192.72;;;4.77;73.28
12949;BME280;6539;49.476;8.484;2023-03-12T08:34:56;100191.72;;;4.88;73.09
12949;BME280;6539;49.476;8.484;2023-03-12T08:37:22;100194.34;;;4.81;72.89
12949;BME280;6539;49.476;8.484;2023-03-12T08:39:51;100180.88;;;4.58;74.36
12949;BME280;6539;49.476;8.484;2023-03-12T08:42:17;100179.06;;;4.70;74.45
12949;BME280;6539;49.476;8.484;2023-03-12T08:44:47;100177.84;;;4.63;74.54
12949;BME280;6539;49.476;8.484;2023-03-12T08:47:15;100172.75;;;4.62;74.93
12949;BME280;6539;49.476;8.484;2023-03-12T08:49:41;100176.19;;;4.55;74.97
12949;BME280;6539;49.476;8.484;2023-03-12T08:52:07;100176.31;;;4.66;75.57
12949;BME280;6539;49.476;8.484;2023-03-12T08:54:35;100169.25;;;4.61;75.56
12949;BME280;6539;49.476;8.484;2023-03-12T08:57:01;100175.28;;;4.78;75.43
12949;BME280;6539;49.476;8.484;2023-03-12T08:59:29;100168.44;;;4.91;74.73
12949;BME280;6539;49.476;8.484;2023-03-12T09:01:57;100156.88;;;5.01;74.71
12949;BME280;6539;49.476;8.484;2023-03-12T09:04:23;100165.50;;;5.10;74.14
12949;BME280;6539;49.476;8.484;2023-03-12T09:06:49;100163.69;;;4.84;75.42
12949;BME280;6539;49.476;8.484;2023-03-12T09:09:17;100160.28;;;4.91;75.46
12949;BME280;6539;49.476;8.484;2023-03-12T09:11:45;100168.53;;;5.01;75.53
12949;BME280;6539;49.476;8.484;2023-03-12T09:14:10;100169.72;;;5.00;75.80
12949;BME280;6539;49.476;8.484;2023-03-12T09:16:36;100166.19;;;5.00;76.49
12949;BME280;6539;49.476;8.484;2023-03-12T09:19:02;100165.81;;;5.01;76.43
12949;BME280;6539;49.476;8.484;2023-03-12T09:21:28;100168.13;;;4.99;76.84
12949;BME280;6539;49.476;8.484;2023-03-12T09:23:57;100171.25;;;5.01;77.16
12949;BME280;6539;49.476;8.484;2023-03-12T09:26:22;100175.25;;;5.11;77.46
12949;BME280;6539;49.476;8.484;2023-03-12T09:28:49;100170.69;;;5.22;77.69
12949;BME280;6539;49.476;8.484;2023-03-12T09:31:15;100167.53;;;5.20;78.08
12949;BME280;6539;49.476;8.484;2023-03-12T09:33:41;100172.59;;;5.18;78.93
12949;BME280;6539;49.476;8.484;2023-03-12T09:36:12;100181.59;;;5.25;78.83
12949;BME280;6539;49.476;8.484;2023-03-12T09:38:37;100187.13;;;5.32;78.44
12949;BME280;6539;49.476;8.484;2023-03-12T09:41:05;100188.28;;;5.35;78.39
12949;BME280;6539;49.476;8.484;2023-03-12T09:43:41;100193.41;;;5.40;78.24
12949;BME280;6539;49.476;8.484;2023-03-12T09:55:11;100196.47;;;5.35;79.21
12949;BME280;6539;49.476;8.484;2023-03-12T09:57:40;100193.63;;;5.21;79.78
12949;BME280;6539;49.476;8.484;2023-03-12T10:00:13;100201.84;;;5.28;80.41
12949;BME280;6539;49.476;8.484;2023-03-12T10:03:09;100209.72;;;5.40;80.80
12949;BME280;6539;49.476;8.484;2023-03-12T10:20:50;100220.13;;;6.19;78.30
12949;BME280;6539;49.476;8.484;2023-03-12T10:26:23;100214.22;;;6.09;77.81
12949;BME280;6539;49.476;8.484;2023-03-12T10:32:03;100218.53;;;6.93;77.46
12949;BME280;6539;49.476;8.484;2023-03-12T10:34:55;100205.78;;;7.43;74.39
12949;BME280;6539;49.476;8.484;2023-03-12T10:37:52;100208.91;;;7.62;73.08
12949;BME280;6539;49.476;8.484;2023-03-12T10:40:30;100205.78;;;7.53;73.01
12949;BME280;6539;49.476;8.484;2023-03-12T10:42:59;100206.16;;;7.48;73.39
12949;BME280;6539;49.476;8.484;2023-03-12T10:48:26;100194.47;;;7.51;73.47
12949;BME280;6539;49.476;8.484;2023-03-12T10:51:10;100193.69;;;7.40;73.86
12949;BME280;6539;49.476;8.484;2023-03-12T10:53:41;100192.13;;;7.46;73.92
12949;BME280;6539;49.476;8.484;2023-03-12T10:56:15;100187.47;;;7.43;74.54
12949;BME280;6539;49.476;8.484;2023-03-12T10:58:51;100188.25;;;7.44;75.16
12949;BME280;6539;49.476;8.484;2023-03-12T11:01:31;100197.97;;;7.24;76.31
12949;BME280;6539;49.476;8.484;2023-03-12T11:09:30;100198.41;;;7.50;76.73
12949;BME280;6539;49.476;8.484;2023-03-12T11:11:56;100201.88;;;7.61;76.54
12949;BME280;6539;49.476;8.484;2023-03-12T11:14:30;100208.13;;;7.72;76.56
12949;BME280;6539;49.476;8.484;2023-03-12T11:17:23;100203.84;;;7.72;76.47
12949;BME280;6539;49.476;8.484;2023-03-12T11:19:50;100210.09;;;7.68;76.84
12949;BME280;6539;49.476;8.484;2023-03-12T11:22:32;100205.78;;;7.75;77.07
12949;BME280;6539;49.476;8.484;2023-03-12T11:25:05;100206.97;;;7.88;77.00
12949;BME280;6539;49.476;8.484;2023-03-12T11:27:45;100201.91;;;7.83;77.55
12949;BME280;6539;49.476;8.484;2023-03-12T11:30:21;100199.56;;;7.88;78.10
12949;BME280;6539;49.476;8.484;2023-03-12T11:32:49;100202.28;;;8.06;77.73
12949;BME280;6539;49.476;8.484;2023-03-12T11:35:37;100192.88;;;8.21;77.56
12949;BME280;6539;49.476;8.484;2023-03-12T11:38:39;100197.91;;;8.51;77.05
12949;BME280;6539;49.476;8.484;2023-03-12T11:44:15;100194.88;;;9.14;75.38
12949;BME280;6539;49.476;8.484;2023-03-12T11:47:05;100180.97;;;9.46;74.03
12949;BME280;6539;49.476;8.484;2023-03-12T11:49:45;100182.78;;;9.63;73.49
12949;BME280;6539;49.476;8.484;2023-03-12T11:52:29;100181.06;;;9.79;73.52
12949;BME280;6539;49.476;8.484;2023-03-12T11:55:23;100178.09;;;10.11;73.91
12949;BME280;6539;49.476;8.484;2023-03-12T11:58:11;100173.66;;;10.24;73.42
12949;BME280;6539;49.476;8.484;2023-03-12T12:00:56;100176.34;;;10.61;72.91
12949;BME280;6539;49.476;8.484;2023-03-12T12:08:52;100161.78;;;10.95;72.67
12949;BME280;6539;49.476;8.484;2023-03-12T12:14:55;100140.22;;;11.20;70.27
12949;BME280;6539;49.476;8.484;2023-03-12T12:26:12;100135.63;;;11.13;71.09
12949;BME280;6539;49.476;8.484;2023-03-12T12:31:56;100146.56;;;11.17;71.19
12949;BME280;6539;49.476;8.484;2023-03-12T12:34:56;100131.16;;;11.23;71.86
12949;BME280;6539;49.476;8.484;2023-03-12T12:38:12;100128.16;;;11.40;71.96
12949;BME280;6539;49.476;8.484;2023-03-12T12:40:49;100130.28;;;11.52;71.45
12949;BME280;6539;49.476;8.484;2023-03-12T12:43:38;100131.44;;;11.55;71.57
12949;BME280;6539;49.476;8.484;2023-03-12T12:48:52;100133.94;;;11.46;72.01
12949;BME280;6539;49.476;8.484;2023-03-12T12:51:30;100136.69;;;11.46;72.01
12949;BME280;6539;49.476;8.484;2023-03-12T13:00:46;100134.19;;;11.55;72.20
12949;BME280;6539;49.476;8.484;2023-03-12T13:03:20;100134.81;;;11.63;71.91
12949;BME280;6539;49.476;8.484;2023-03-12T13:06:04;100132.31;;;11.75;71.29
12949;BME280;6539;49.476;8.484;2023-03-12T13:16:36;100098.09;;;12.74;69.96
12949;BME280;6539;49.476;8.484;2023-03-12T13:27:45;100101.84;;;13.81;63.37
12949;BME280;6539;49.476;8.484;2023-03-12T13:35:36;100071.34;;;14.00;57.45
12949;BME280;6539;49.476;8.484;2023-03-12T13:38:13;100062.47;;;14.21;57.08
12949;BME280;6539;49.476;8.484;2023-03-12T13:40:57;100066.09;;;14.47;55.58
12949;BME280;6539;49.476;8.484;2023-03-12T13:46:34;100081.41;;;14.64;54.47
12949;BME280;6539;49.476;8.484;2023-03-12T13:49:10;100079.81;;;14.63;55.14
12949;BME280;6539;49.476;8.484;2023-03-12T13:51:51;100063.91;;;14.67;54.84
12949;BME280;6539;49.476;8.484;2023-03-12T13:54:23;100065.47;;;14.56;55.09
12949;BME280;6539;49.476;8.484;2023-03-12T13:57:29;100069.97;;;14.49;55.35
12949;BME280;6539;49.476;8.484;2023-03-12T14:02:51;100067.78;;;14.57;55.38
12949;BME280;6539;49.476;8.484;2023-03-12T14:05:19;100064.56;;;14.59;55.50
12949;BME280;6539;49.476;8.484;2023-03-12T14:11:52;100075.81;;;14.51;56.62
12949;BME280;6539;49.476;8.484;2023-03-12T14:17:41;100078.00;;;14.31;57.42
12949;BME280;6539;49.476;8.484;2023-03-12T14:22:49;100075.72;;;14.42;56.97
12949;BME280;6539;49.476;8.484;2023-03-12T14:25:38;100077.50;;;14.49;57.29
12949;BME280;6539;49.476;8.484;2023-03-12T14:28:16;100075.72;;;14.42;56.66
12949;BME280;6539;49.476;8.484;2023-03-12T14:30:59;100075.03;;;14.38;57.35
12949;BME280;6539;49.476;8.484;2023-03-12T14:33:34;100073.94;;;14.36;58.12
12949;BME280;6539;49.476;8.484;2023-03-12T14:36:16;100072.03;;;14.33;58.29
12949;BME280;6539;49.476;8.484;2023-03-12T14:38:46;100060.78;;;14.11;58.81
12949;BME280;6539;49.476;8.484;2023-03-12T14:44:03;100062.25;;;13.87;60.33
12949;BME280;6539;49.476;8.484;2023-03-12T14:46:29;100064.84;;;13.78;61.02
12949;BME280;6539;49.476;8.484;2023-03-12T14:48:56;100069.03;;;13.70;61.00
12949;BME280;6539;49.476;8.484;2023-03-12T14:51:29;100063.44;;;13.73;60.52
12949;BME280;6539;49.476;8.484;2023-03-12T14:54:03;100063.44;;;13.73;59.33
12949;BME280;6539;49.476;8.484;2023-03-12T14:56:33;100071.44;;;13.68;59.42
12949;BME280;6539;49.476;8.484;2023-03-12T14:59:31;100069.97;;;13.63;59.67
12949;BME280;6539;49.476;8.484;2023-03-12T15:02:11;100057.16;;;13.57;59.75
12949;BME280;6539;49.476;8.484;2023-03-12T15:04:38;100059.66;;;13.51;59.89
12949;BME280;6539;49.476;8.484;2023-03-12T15:07:08;100056.22;;;13.47;60.39
12949;BME280;6539;49.476;8.484;2023-03-12T15:09:45;100052.59;;;13.50;60.81
12949;BME280;6539;49.476;8.484;2023-03-12T15:12:34;100064.50;;;13.47;60.89
12949;BME280;6539;49.476;8.484;2023-03-12T15:15:24;100052.06;;;13.39;61.36
12949;BME280;6539;49.476;8.484;2023-03-12T15:17:57;100051.91;;;13.46;61.65
12949;BME280;6539;49.476;8.484;2023-03-12T15:20:25;100055.53;;;13.43;61.80
12949;BME280;6539;49.476;8.484;2023-03-12T15:22:52;100049.53;;;13.32;62.46
12949;BME280;6539;49.476;8.484;2023-03-12T15:25:29;100042.72;;;13.37;62.35
12949;BME280;6539;49.476;8.484;2023-03-12T15:28:26;100052.97;;;13.36;62.75
12949;BME280;6539;49.476;8.484;2023-03-12T15:31:15;100043.81;;;13.39;62.53
12949;BME280;6539;49.476;8.484;2023-03-12T15:33:43;100049.66;;;13.41;62.56